Farmington River @ Simsbury, Ct

Farmington River at Simsbury
 Total Drainage Area: 497 sq. miles 
 Drainage Area Controlled by Corps Dams: 139 sq. miles (28%) 
 Warning Flow/Stage: 2,000 cfs / 6.0 feet 
 Flood Flow/Stage: 9,200 cfs / 12.0 feet 
Date Time
(Eastern)
Stage
(ft)
Flow
(cfs)
CSM
May-28 12:30 pm 2.42 479 1.0
May-28 11:30 am 2.39 472 1.0
May-28 10:30 am 2.36 465 .9
May-28 09:30 am 2.33 458 .9
May-28 08:30 am 2.31 453 .9
May-28 07:30 am 2.29 448 .9
May-28 06:30 am 2.26 441 .9
May-28 05:30 am 2.22 432 .9
May-28 04:30 am 2.20 428 .9
May-28 03:30 am 2.17 421 .9
May-28 02:30 am 2.12 409 .8
May-28 01:30 am 2.12 409 .8
May-28 12:30 am 2.12 409 .8
May-27 11:30 pm 2.12 409 .8
May-27 10:30 pm 2.12 409 .8
May-27 09:30 pm 2.12 409 .8
May-27 08:30 pm 2.13 412 .8
May-27 07:30 pm 2.13 412 .8
May-27 06:30 pm 2.13 412 .8
May-27 05:30 pm 2.14 414 .8
May-27 04:30 pm 2.14 414 .8
May-27 03:30 pm 2.14 414 .8
May-27 02:30 pm 2.15 416 .8
May-27 01:30 pm 2.15 416 .8
May-27 12:30 pm 2.15 416 .8
Report Generated May 28, 2022 04:47 pm